createdAt,value
2018-08-30T00:00:19.510Z,15.50
2018-08-30T00:02:47.755Z,15.40
2018-08-30T00:05:15.927Z,15.40
2018-08-30T00:07:44.118Z,15.30
2018-08-30T00:10:12.276Z,15.30
2018-08-30T00:12:40.453Z,15.40
2018-08-30T00:15:08.613Z,15.30
2018-08-30T00:17:36.810Z,15.30
2018-08-30T00:20:04.961Z,15.20
2018-08-30T00:22:33.207Z,15.30
2018-08-30T00:25:01.403Z,15.20
2018-08-30T00:27:29.634Z,15.20
2018-08-30T00:29:57.861Z,15.30
2018-08-30T00:32:26.083Z,15.30
2018-08-30T00:34:54.233Z,15.30
2018-08-30T00:37:22.388Z,15.30
2018-08-30T00:39:50.618Z,15.30
2018-08-30T00:42:19.734Z,15.30
2018-08-30T00:44:47.925Z,15.30
2018-08-30T00:47:21.925Z,15.30
2018-08-30T00:49:51.180Z,15.30
2018-08-30T00:52:20.080Z,15.30
2018-08-30T00:54:48.404Z,15.30
2018-08-30T00:57:16.900Z,15.30
2018-08-30T00:59:45.065Z,15.30
2018-08-30T01:02:13.273Z,15.20
2018-08-30T01:04:41.496Z,15.20
2018-08-30T01:07:09.741Z,15.20
2018-08-30T01:09:37.976Z,15.10
2018-08-30T01:12:06.229Z,15.10
2018-08-30T01:14:34.468Z,15.10
2018-08-30T01:17:03.039Z,15.00
2018-08-30T01:19:31.223Z,15.00
2018-08-30T01:21:59.438Z,15.00
2018-08-30T01:24:28.121Z,15.00
2018-08-30T01:26:56.354Z,15.00
2018-08-30T01:29:24.544Z,15.00
2018-08-30T01:31:52.724Z,15.00
2018-08-30T01:34:20.873Z,15.00
2018-08-30T01:36:49.109Z,15.00
2018-08-30T01:39:17.292Z,14.90
2018-08-30T01:41:45.472Z,14.90
2018-08-30T01:44:14.420Z,14.80
2018-08-30T01:46:42.776Z,14.90
2018-08-30T01:49:10.925Z,14.90
2018-08-30T01:51:39.143Z,14.90
2018-08-30T01:54:07.419Z,14.90
2018-08-30T01:56:35.605Z,15.00
2018-08-30T01:59:03.801Z,15.00
2018-08-30T02:01:32.073Z,15.00
2018-08-30T02:04:00.231Z,15.10
2018-08-30T02:06:28.396Z,15.00
2018-08-30T02:08:56.759Z,15.00
2018-08-30T02:11:24.972Z,15.10
2018-08-30T02:13:53.123Z,15.10
2018-08-30T02:16:21.288Z,15.10
2018-08-30T02:18:49.480Z,15.10
2018-08-30T02:21:17.640Z,15.10
2018-08-30T02:23:46.056Z,15.10
2018-08-30T02:26:14.215Z,15.10
2018-08-30T02:28:42.389Z,15.10
2018-08-30T02:31:10.576Z,15.10
2018-08-30T02:33:38.771Z,15.10
2018-08-30T02:36:06.908Z,15.10
2018-08-30T02:38:35.113Z,15.10
2018-08-30T02:41:03.260Z,15.10
2018-08-30T02:43:31.473Z,15.10
2018-08-30T02:45:59.653Z,15.20
2018-08-30T02:48:27.809Z,15.10
2018-08-30T02:50:56.001Z,15.20
2018-08-30T02:53:24.144Z,15.10
2018-08-30T02:55:52.312Z,15.20
2018-08-30T02:58:20.487Z,15.20
2018-08-30T03:00:48.649Z,15.20
2018-08-30T03:03:16.849Z,15.10
2018-08-30T03:05:45.166Z,15.10
2018-08-30T03:08:13.200Z,15.00
2018-08-30T03:10:41.377Z,15.00
2018-08-30T03:13:09.524Z,15.00
2018-08-30T03:15:37.716Z,15.00
2018-08-30T03:18:06.025Z,15.00
2018-08-30T03:20:34.248Z,15.00
2018-08-30T03:23:02.442Z,15.00
2018-08-30T03:25:30.757Z,15.10
2018-08-30T03:27:58.917Z,15.00
2018-08-30T03:30:27.198Z,15.10
2018-08-30T03:32:55.256Z,15.10
2018-08-30T03:35:29.845Z,15.00
2018-08-30T03:37:58.008Z,15.00
2018-08-30T03:40:26.189Z,15.10
2018-08-30T03:42:54.381Z,15.10
2018-08-30T03:45:22.581Z,15.10
2018-08-30T03:47:50.805Z,15.10
2018-08-30T03:50:19.926Z,15.10
2018-08-30T03:52:48.108Z,15.10
2018-08-30T03:55:16.353Z,15.10
2018-08-30T03:57:44.444Z,15.10
2018-08-30T04:00:12.687Z,15.10
2018-08-30T04:02:40.976Z,15.20
2018-08-30T04:05:09.141Z,15.20
2018-08-30T04:07:37.396Z,15.20
2018-08-30T04:10:05.618Z,15.20
2018-08-30T04:12:33.973Z,15.20
2018-08-30T04:15:02.118Z,15.20
2018-08-30T04:17:30.276Z,15.20
2018-08-30T04:20:05.279Z,15.20
2018-08-30T04:22:33.521Z,15.20
2018-08-30T04:25:01.706Z,15.20
2018-08-30T04:27:29.901Z,15.20
2018-08-30T04:29:58.063Z,15.20
2018-08-30T04:32:26.264Z,15.30
2018-08-30T04:34:54.473Z,15.20
2018-08-30T04:37:22.669Z,15.20
2018-08-30T04:39:50.837Z,15.30
2018-08-30T04:42:19.971Z,15.30
2018-08-30T04:44:48.108Z,15.30
2018-08-30T04:47:16.311Z,15.30
2018-08-30T04:49:44.636Z,15.30
2018-08-30T04:52:12.824Z,15.30
2018-08-30T04:54:40.984Z,15.30
2018-08-30T04:57:09.181Z,15.30
2018-08-30T04:59:37.421Z,15.30
2018-08-30T05:02:05.581Z,15.30
2018-08-30T05:04:33.805Z,15.30
2018-08-30T05:07:02.000Z,15.40
2018-08-30T05:09:30.166Z,15.40
2018-08-30T05:11:58.373Z,15.40
2018-08-30T05:14:26.540Z,15.50
2018-08-30T05:16:54.797Z,15.40
2018-08-30T05:19:23.014Z,15.40
2018-08-30T05:21:51.237Z,15.40
2018-08-30T05:24:20.145Z,15.40
2018-08-30T05:26:48.560Z,15.40
2018-08-30T05:29:16.799Z,15.40
2018-08-30T05:31:45.009Z,15.50
2018-08-30T05:34:13.329Z,15.50
2018-08-30T05:36:42.574Z,15.50
2018-08-30T05:39:10.852Z,15.60
2018-08-30T05:41:39.333Z,15.70
2018-08-30T05:44:07.496Z,15.70
2018-08-30T05:46:35.684Z,15.70
2018-08-30T05:49:03.936Z,15.70
2018-08-30T05:51:32.253Z,15.70
2018-08-30T05:54:00.482Z,15.80
2018-08-30T05:56:28.697Z,15.80
2018-08-30T06:01:31.598Z,15.90
2018-08-30T06:04:00.394Z,15.90
2018-08-30T06:06:28.544Z,15.90
2018-08-30T06:08:56.737Z,15.90
2018-08-30T06:11:25.116Z,15.80
2018-08-30T06:13:53.377Z,15.80
2018-08-30T06:16:21.573Z,15.80
2018-08-30T06:18:49.828Z,15.80
2018-08-30T06:21:18.114Z,15.80
2018-08-30T06:23:46.752Z,15.80
2018-08-30T06:26:14.969Z,15.80
2018-08-30T06:28:43.251Z,15.90
2018-08-30T06:31:11.525Z,15.90
2018-08-30T06:33:39.700Z,16.00
2018-08-30T06:36:07.913Z,16.00
2018-08-30T06:38:36.066Z,16.00
2018-08-30T06:41:04.225Z,16.00
2018-08-30T06:43:32.449Z,16.10
2018-08-30T06:46:00.590Z,16.20
2018-08-30T06:48:28.838Z,16.20
2018-08-30T06:50:57.018Z,16.10
2018-08-30T06:53:25.249Z,16.10
2018-08-30T06:55:53.458Z,16.10
2018-08-30T06:58:21.983Z,16.20
2018-08-30T07:00:50.163Z,16.20
2018-08-30T07:03:18.426Z,16.20
2018-08-30T07:05:46.563Z,16.20
2018-08-30T07:08:14.777Z,16.40
2018-08-30T07:10:42.923Z,16.50
2018-08-30T07:13:11.089Z,16.40
2018-08-30T07:15:39.271Z,16.40
2018-08-30T07:18:07.502Z,16.40
2018-08-30T07:20:35.673Z,16.60
2018-08-30T07:23:03.889Z,16.60
2018-08-30T07:25:32.141Z,16.60
2018-08-30T07:28:00.329Z,16.80
2018-08-30T07:30:28.554Z,16.50
2018-08-30T07:32:57.012Z,16.70
2018-08-30T07:35:25.199Z,16.70
2018-08-30T07:37:53.392Z,16.80
2018-08-30T07:40:22.061Z,16.90
2018-08-30T07:42:50.290Z,16.90
2018-08-30T07:45:18.477Z,17.00
2018-08-30T07:47:46.756Z,17.20
2018-08-30T07:50:14.929Z,17.40
2018-08-30T07:52:43.167Z,17.30
2018-08-30T07:55:11.345Z,17.20
2018-08-30T07:57:39.512Z,17.20
2018-08-30T08:00:07.989Z,17.20
2018-08-30T08:02:36.051Z,17.30
2018-08-30T08:05:04.277Z,17.30
2018-08-30T08:07:32.483Z,17.20
2018-08-30T08:10:00.673Z,17.30
2018-08-30T08:12:28.884Z,17.20
2018-08-30T08:14:57.060Z,17.10
2018-08-30T08:17:25.209Z,17.30
2018-08-30T08:19:53.397Z,17.30
2018-08-30T08:22:21.662Z,17.50
2018-08-30T08:24:49.872Z,17.50
2018-08-30T08:27:18.124Z,17.40
2018-08-30T08:29:46.364Z,17.50
2018-08-30T08:32:14.570Z,17.50
2018-08-30T08:34:42.765Z,17.40
2018-08-30T08:37:10.961Z,17.50
2018-08-30T08:39:39.150Z,17.70
2018-08-30T08:42:07.443Z,17.90
2018-08-30T08:44:35.652Z,17.80
2018-08-30T08:47:03.920Z,17.90
2018-08-30T08:49:32.267Z,18.00
2018-08-30T08:52:00.572Z,17.80
2018-08-30T08:54:28.820Z,17.90
2018-08-30T08:56:57.140Z,18.10
2018-08-30T08:59:25.309Z,18.10
2018-08-30T09:01:53.494Z,18.30
2018-08-30T09:04:21.813Z,18.30
2018-08-30T09:06:49.992Z,18.50
2018-08-30T09:09:18.190Z,18.30
2018-08-30T09:11:46.420Z,18.50
2018-08-30T09:14:14.619Z,18.40
2018-08-30T09:16:42.785Z,18.60
2018-08-30T09:19:11.048Z,18.30
2018-08-30T09:21:39.324Z,18.20
2018-08-30T09:24:07.503Z,18.00
2018-08-30T09:26:36.179Z,18.30
2018-08-30T09:29:04.401Z,18.50
2018-08-30T09:31:32.591Z,18.50
2018-08-30T09:34:01.084Z,18.50
2018-08-30T09:36:29.212Z,18.90
2018-08-30T09:38:57.523Z,19.10
2018-08-30T09:41:25.725Z,19.00
2018-08-30T09:43:53.962Z,18.70
2018-08-30T09:46:22.063Z,18.50
2018-08-30T09:48:50.639Z,18.60
2018-08-30T09:51:19.032Z,18.70
2018-08-30T09:53:47.188Z,18.70
2018-08-30T09:56:15.500Z,18.90
2018-08-30T09:58:43.732Z,19.00
2018-08-30T10:01:18.246Z,18.90
2018-08-30T10:03:46.504Z,18.70
2018-08-30T10:06:14.963Z,18.70
2018-08-30T10:08:43.237Z,18.80
2018-08-30T10:11:11.606Z,19.20
2018-08-30T10:13:39.776Z,19.40
2018-08-30T10:16:08.000Z,19.30
2018-08-30T10:18:36.216Z,19.20
2018-08-30T10:21:04.503Z,19.60
2018-08-30T10:23:32.654Z,19.20
2018-08-30T10:26:00.889Z,19.20
2018-08-30T10:28:29.095Z,19.10
2018-08-30T10:30:57.236Z,18.80
2018-08-30T10:33:25.412Z,19.00
2018-08-30T10:35:53.654Z,19.00
2018-08-30T10:38:21.929Z,19.00
2018-08-30T10:40:50.056Z,19.10
2018-08-30T10:43:18.281Z,19.70
2018-08-30T10:45:46.459Z,19.70
2018-08-30T10:48:14.678Z,19.30
2018-08-30T10:50:42.959Z,19.00
2018-08-30T10:53:11.212Z,19.10
2018-08-30T10:55:39.380Z,19.00
2018-08-30T10:58:07.867Z,19.00
2018-08-30T11:00:36.089Z,19.20
2018-08-30T11:03:04.532Z,19.30
2018-08-30T11:05:33.090Z,19.40
2018-08-30T11:08:02.058Z,19.60
2018-08-30T11:10:30.266Z,20.10
2018-08-30T11:12:58.598Z,20.10
2018-08-30T11:15:26.773Z,20.10
2018-08-30T11:17:54.996Z,19.80
2018-08-30T11:20:23.189Z,19.50
2018-08-30T11:22:51.375Z,19.30
2018-08-30T11:25:19.724Z,19.30
2018-08-30T11:27:48.036Z,19.20
2018-08-30T11:30:16.206Z,19.30
2018-08-30T11:32:44.426Z,19.40
2018-08-30T11:35:13.549Z,19.50
2018-08-30T11:37:41.767Z,19.60
2018-08-30T11:40:10.585Z,19.80
2018-08-30T11:42:38.772Z,20.00
2018-08-30T11:45:07.614Z,20.10
2018-08-30T11:47:35.776Z,20.50
2018-08-30T11:50:03.980Z,20.00
2018-08-30T11:52:32.257Z,19.60
2018-08-30T11:55:00.540Z,19.90
2018-08-30T11:57:28.673Z,19.80
2018-08-30T11:59:57.036Z,19.70
2018-08-30T12:02:25.248Z,19.50
2018-08-30T12:04:53.528Z,19.50
2018-08-30T12:07:21.752Z,19.30
2018-08-30T12:09:49.974Z,19.40
2018-08-30T12:12:18.171Z,19.90
2018-08-30T12:14:46.383Z,19.60
2018-08-30T12:17:14.572Z,19.50
2018-08-30T12:19:43.428Z,19.60
2018-08-30T12:22:11.722Z,19.80
2018-08-30T12:24:39.932Z,20.00
2018-08-30T12:27:14.886Z,19.80
2018-08-30T12:29:43.135Z,19.80
2018-08-30T12:32:11.307Z,19.70
2018-08-30T12:34:39.500Z,19.60
2018-08-30T12:37:07.700Z,19.50
2018-08-30T12:39:35.880Z,19.60
2018-08-30T12:42:04.079Z,19.60
2018-08-30T12:44:32.429Z,19.90
2018-08-30T12:47:00.674Z,20.00
2018-08-30T12:49:28.880Z,19.60
2018-08-30T12:51:57.153Z,19.70
2018-08-30T12:54:26.466Z,20.10
2018-08-30T12:56:54.628Z,20.40
2018-08-30T12:59:28.415Z,20.40
2018-08-30T13:01:56.652Z,20.10
2018-08-30T13:04:25.044Z,20.10
2018-08-30T13:06:55.219Z,20.30
2018-08-30T13:09:24.033Z,20.80
2018-08-30T13:11:52.299Z,20.90
2018-08-30T13:14:20.476Z,20.70
2018-08-30T13:16:48.740Z,20.50
2018-08-30T13:19:17.170Z,20.10
2018-08-30T13:21:45.151Z,19.80
2018-08-30T13:24:13.370Z,19.70
2018-08-30T13:26:42.217Z,19.70
2018-08-30T13:29:10.661Z,19.90
2018-08-30T13:31:38.918Z,20.20
2018-08-30T13:34:07.149Z,20.20
2018-08-30T13:36:35.218Z,20.50
2018-08-30T13:39:04.483Z,20.40
2018-08-30T13:41:32.809Z,20.50
2018-08-30T13:44:00.749Z,20.30
2018-08-30T13:46:29.015Z,20.10
2018-08-30T13:48:57.101Z,20.30
2018-08-30T13:51:25.350Z,20.30
2018-08-30T13:53:53.519Z,20.40
2018-08-30T13:56:22.209Z,20.90
2018-08-30T13:58:50.372Z,20.50
2018-08-30T14:01:18.731Z,20.30
2018-08-30T14:03:46.637Z,20.30
2018-08-30T14:06:14.937Z,20.10
2018-08-30T14:08:43.119Z,20.30
2018-08-30T14:11:11.384Z,20.20
2018-08-30T14:13:39.527Z,19.80
2018-08-30T14:16:07.404Z,20.00
2018-08-30T14:18:35.702Z,19.90
2018-08-30T14:21:03.777Z,20.00
2018-08-30T14:23:32.044Z,20.00
2018-08-30T14:26:00.307Z,20.00
2018-08-30T14:28:28.473Z,19.90
2018-08-30T14:30:56.764Z,19.80
2018-08-30T14:33:24.989Z,19.90
2018-08-30T14:35:53.245Z,20.10
2018-08-30T14:38:21.389Z,20.40
2018-08-30T14:40:49.670Z,20.50
2018-08-30T14:43:17.711Z,20.70
2018-08-30T14:45:45.884Z,20.80
2018-08-30T14:48:14.878Z,20.60
2018-08-30T14:50:44.073Z,20.70
2018-08-30T14:53:12.543Z,20.60
2018-08-30T14:55:40.687Z,20.40
2018-08-30T14:58:09.667Z,20.10
2018-08-30T15:00:37.902Z,20.20
2018-08-30T15:03:06.990Z,20.20
2018-08-30T15:05:35.361Z,20.30
2018-08-30T15:08:03.525Z,20.20
2018-08-30T15:10:31.800Z,20.10
2018-08-30T15:13:00.045Z,19.90
2018-08-30T15:15:28.212Z,20.10
2018-08-30T15:17:56.603Z,20.10
2018-08-30T15:20:24.784Z,20.00
2018-08-30T15:22:52.974Z,19.90
2018-08-30T15:25:21.237Z,20.00
2018-08-30T15:27:49.408Z,20.30
2018-08-30T15:30:17.656Z,20.40
2018-08-30T15:32:45.985Z,20.50
2018-08-30T15:35:14.330Z,20.40
2018-08-30T15:37:42.505Z,20.30
2018-08-30T15:40:10.684Z,20.40
2018-08-30T15:42:38.888Z,20.40
2018-08-30T15:45:07.186Z,20.30
2018-08-30T15:47:35.384Z,20.40
2018-08-30T15:50:03.602Z,20.30
2018-08-30T15:52:31.822Z,20.20
2018-08-30T15:55:00.061Z,20.20
2018-08-30T15:57:28.240Z,20.40
2018-08-30T15:59:56.456Z,20.50
2018-08-30T16:02:24.630Z,20.50
2018-08-30T16:04:52.868Z,20.40
2018-08-30T16:07:21.001Z,20.30
2018-08-30T16:09:49.245Z,20.40
2018-08-30T16:12:17.537Z,20.60
2018-08-30T16:14:45.665Z,20.30
2018-08-30T16:17:13.852Z,20.40
2018-08-30T16:19:42.110Z,20.40
2018-08-30T16:22:10.383Z,20.50
2018-08-30T16:24:38.756Z,20.40
2018-08-30T16:27:06.948Z,20.50
2018-08-30T16:29:35.115Z,20.50
2018-08-30T16:32:03.386Z,20.50
2018-08-30T16:34:31.573Z,20.40
2018-08-30T16:36:59.848Z,20.30
2018-08-30T16:39:28.034Z,20.30
2018-08-30T16:41:56.413Z,20.20
2018-08-30T16:44:24.584Z,20.30
2018-08-30T16:46:52.789Z,20.60
2018-08-30T16:49:20.968Z,20.50
2018-08-30T16:51:49.174Z,20.70
2018-08-30T16:54:17.464Z,21.10
2018-08-30T16:56:45.703Z,21.00
2018-08-30T16:59:13.930Z,20.70
2018-08-30T17:01:42.852Z,20.80
2018-08-30T17:04:11.305Z,20.80
2018-08-30T17:06:39.551Z,20.80
2018-08-30T17:09:07.901Z,20.60
2018-08-30T17:11:36.317Z,20.60
2018-08-30T17:14:04.648Z,20.50
2018-08-30T17:16:33.149Z,20.30
2018-08-30T17:19:10.888Z,20.50
2018-08-30T17:21:39.064Z,20.40
2018-08-30T17:24:07.307Z,20.30
2018-08-30T17:26:35.574Z,20.30
2018-08-30T17:29:03.840Z,20.20
2018-08-30T17:31:32.252Z,20.10
2018-08-30T17:34:00.488Z,19.90
2018-08-30T17:36:28.802Z,19.90
2018-08-30T17:38:57.121Z,19.80
2018-08-30T17:41:25.356Z,19.70
2018-08-30T17:43:53.620Z,19.70
2018-08-30T17:46:21.992Z,19.40
2018-08-30T17:48:50.250Z,19.30
2018-08-30T17:51:18.670Z,19.30
2018-08-30T17:53:46.905Z,19.30
2018-08-30T17:56:15.136Z,19.20
2018-08-30T17:58:43.516Z,19.10
2018-08-30T18:01:11.675Z,19.10
2018-08-30T18:03:39.802Z,19.00
2018-08-30T18:06:08.150Z,18.90
2018-08-30T18:08:36.385Z,18.80
2018-08-30T18:11:04.746Z,18.80
2018-08-30T18:13:32.968Z,18.70
2018-08-30T18:16:01.166Z,18.70
2018-08-30T18:18:29.470Z,18.60
2018-08-30T18:20:58.720Z,18.60
2018-08-30T18:23:27.020Z,18.50
2018-08-30T18:25:55.245Z,18.40
2018-08-30T18:28:24.359Z,18.30
2018-08-30T18:30:52.575Z,18.30
2018-08-30T18:33:20.912Z,18.20
2018-08-30T18:35:49.209Z,18.30
2018-08-30T18:38:17.453Z,18.10
2018-08-30T18:40:45.910Z,18.10
2018-08-30T18:43:14.156Z,18.00
2018-08-30T18:45:42.371Z,18.00
2018-08-30T18:48:10.603Z,17.90
2018-08-30T18:50:38.840Z,17.90
2018-08-30T18:53:07.081Z,17.80
2018-08-30T18:55:35.380Z,17.70
2018-08-30T18:58:03.662Z,17.60
2018-08-30T19:00:31.884Z,17.50
2018-08-30T19:03:00.116Z,17.50
2018-08-30T19:05:28.421Z,17.50
2018-08-30T19:07:56.626Z,17.40
2018-08-30T19:10:24.828Z,17.30
2018-08-30T19:12:53.008Z,17.30
2018-08-30T19:15:26.508Z,17.30
2018-08-30T19:18:00.092Z,17.30
2018-08-30T19:20:28.367Z,17.20
2018-08-30T19:22:56.521Z,17.20
2018-08-30T19:25:25.823Z,17.20
2018-08-30T19:27:54.157Z,17.10
2018-08-30T19:30:27.513Z,17.10
2018-08-30T19:32:56.783Z,17.00
2018-08-30T19:35:30.136Z,17.00
2018-08-30T19:37:58.348Z,17.10
2018-08-30T19:40:31.885Z,17.00
2018-08-30T19:43:00.714Z,16.90
2018-08-30T19:45:29.752Z,16.90
2018-08-30T19:47:58.405Z,16.80
2018-08-30T19:50:27.380Z,16.70
2018-08-30T19:52:55.524Z,16.70
2018-08-30T19:55:23.713Z,16.70
2018-08-30T19:57:51.952Z,16.60
2018-08-30T20:00:20.144Z,16.60
2018-08-30T20:02:48.317Z,16.50
2018-08-30T20:05:16.562Z,16.50
2018-08-30T20:07:44.853Z,16.50
2018-08-30T20:10:12.967Z,16.40
2018-08-30T20:12:41.118Z,16.40
2018-08-30T20:15:09.313Z,16.40
2018-08-30T20:17:37.454Z,16.40
2018-08-30T20:20:06.109Z,16.30
2018-08-30T20:22:34.276Z,16.30
2018-08-30T20:25:02.473Z,16.30
2018-08-30T20:27:30.677Z,16.20
2018-08-30T20:29:58.913Z,16.20
2018-08-30T20:32:27.046Z,16.20
2018-08-30T20:34:55.218Z,16.10
2018-08-30T20:37:23.450Z,16.10
2018-08-30T20:39:51.813Z,16.10
2018-08-30T20:42:20.000Z,16.00
2018-08-30T20:44:48.209Z,16.00
2018-08-30T20:47:16.387Z,15.90
2018-08-30T20:49:44.631Z,15.90
2018-08-30T20:52:12.802Z,15.90
2018-08-30T20:54:40.998Z,15.90
2018-08-30T20:57:09.209Z,15.90
2018-08-30T20:59:37.463Z,15.80
2018-08-30T21:02:05.719Z,15.80
2018-08-30T21:04:33.952Z,15.80
2018-08-30T21:07:02.185Z,15.70
2018-08-30T21:09:30.360Z,15.70
2018-08-30T21:11:58.567Z,15.70
2018-08-30T21:14:26.753Z,15.60
2018-08-30T21:16:54.916Z,15.60
2018-08-30T21:19:23.145Z,15.60
2018-08-30T21:21:51.304Z,15.60
2018-08-30T21:24:19.455Z,15.50
2018-08-30T21:26:47.634Z,15.50
2018-08-30T21:29:15.812Z,15.40
2018-08-30T21:31:43.981Z,15.40
2018-08-30T21:34:12.178Z,15.40
2018-08-30T21:36:40.342Z,15.40
2018-08-30T21:39:11.882Z,15.40
2018-08-30T21:41:40.117Z,15.30
2018-08-30T21:44:08.248Z,15.30
2018-08-30T21:46:36.426Z,15.30
2018-08-30T21:49:04.573Z,15.30
2018-08-30T21:51:32.759Z,15.30
2018-08-30T21:54:00.965Z,15.30
2018-08-30T21:56:29.149Z,15.20
2018-08-30T21:58:57.364Z,15.20
2018-08-30T22:01:25.591Z,15.20
2018-08-30T22:03:53.761Z,15.10
2018-08-30T22:06:21.960Z,15.10
2018-08-30T22:08:50.138Z,15.10
2018-08-30T22:11:18.329Z,15.10
2018-08-30T22:13:46.506Z,15.10
2018-08-30T22:16:14.741Z,15.00
2018-08-30T22:18:42.877Z,15.00
2018-08-30T22:21:11.178Z,15.00
2018-08-30T22:23:39.340Z,15.00
2018-08-30T22:26:07.537Z,15.00
2018-08-30T22:28:35.719Z,15.00
2018-08-30T22:31:03.872Z,15.00
2018-08-30T22:33:32.061Z,14.90
2018-08-30T22:36:00.221Z,14.90
2018-08-30T22:38:28.385Z,14.80
2018-08-30T22:40:56.578Z,14.80
2018-08-30T22:43:24.753Z,14.80
2018-08-30T22:45:53.059Z,14.90
2018-08-30T22:48:21.306Z,14.80
2018-08-30T22:50:49.481Z,14.80
2018-08-30T22:53:17.680Z,14.80
2018-08-30T22:55:45.970Z,14.80
2018-08-30T22:58:14.122Z,14.70
2018-08-30T23:00:42.313Z,14.70
2018-08-30T23:03:10.496Z,14.70
2018-08-30T23:05:38.689Z,14.80
2018-08-30T23:08:06.936Z,14.70
2018-08-30T23:10:35.074Z,14.70
2018-08-30T23:13:03.261Z,14.60
2018-08-30T23:15:31.457Z,14.50
2018-08-30T23:17:59.616Z,14.50
2018-08-30T23:20:27.809Z,14.50
2018-08-30T23:22:55.948Z,14.40
2018-08-30T23:25:24.161Z,14.40
2018-08-30T23:27:52.331Z,14.40
2018-08-30T23:30:22.118Z,14.50
2018-08-30T23:32:50.330Z,14.50
2018-08-30T23:35:18.460Z,14.40
2018-08-30T23:37:46.687Z,14.40
2018-08-30T23:40:14.889Z,14.40
2018-08-30T23:42:43.049Z,14.40
2018-08-30T23:45:11.300Z,14.40
2018-08-30T23:47:39.497Z,14.30
2018-08-30T23:50:07.671Z,14.30
2018-08-30T23:52:35.931Z,14.30
2018-08-30T23:55:04.086Z,14.30
2018-08-30T23:57:32.235Z,14.30
